sensor_id;sensor_type;location;lat;lon;timestamp;P1;durP1;ratioP1;P2;durP2;ratioP2
22549;SDS011;11441;57.164;-2.120;2023-06-14T00:02:12;8.18;;;3.90;;
22549;SDS011;11441;57.164;-2.120;2023-06-14T00:04:39;10.32;;;3.80;;
22549;SDS011;11441;57.164;-2.120;2023-06-14T00:07:08;6.78;;;4.55;;
22549;SDS011;11441;57.164;-2.120;2023-06-14T00:09:37;5.50;;;4.90;;
22549;SDS011;11441;57.164;-2.120;2023-06-14T00:12:04;8.38;;;4.38;;
22549;SDS011;11441;57.164;-2.120;2023-06-14T00:14:33;6.30;;;4.32;;
22549;SDS011;11441;57.164;-2.120;2023-06-14T00:17:18;8.75;;;4.28;;
22549;SDS011;11441;57.164;-2.120;2023-06-14T00:19:45;6.07;;;4.18;;
22549;SDS011;11441;57.164;-2.120;2023-06-14T00:22:12;4.85;;;3.97;;
22549;SDS011;11441;57.164;-2.120;2023-06-14T00:24:40;4.70;;;4.30;;
22549;SDS011;11441;57.164;-2.120;2023-06-14T00:27:07;5.45;;;3.92;;
22549;SDS011;11441;57.164;-2.120;2023-06-14T00:29:34;6.53;;;3.83;;
22549;SDS011;11441;57.164;-2.120;2023-06-14T00:32:03;4.15;;;3.75;;
22549;SDS011;11441;57.164;-2.120;2023-06-14T00:34:30;5.35;;;4.18;;
22549;SDS011;11441;57.164;-2.120;2023-06-14T00:36:57;7.28;;;3.95;;
22549;SDS011;11441;57.164;-2.120;2023-06-14T00:39:42;4.10;;;3.70;;
22549;SDS011;11441;57.164;-2.120;2023-06-14T00:42:09;7.43;;;4.22;;
22549;SDS011;11441;57.164;-2.120;2023-06-14T00:44:36;4.22;;;3.72;;
22549;SDS011;11441;57.164;-2.120;2023-06-14T00:47:03;5.93;;;3.78;;
22549;SDS011;11441;57.164;-2.120;2023-06-14T00:49:30;8.00;;;3.72;;
22549;SDS011;11441;57.164;-2.120;2023-06-14T00:51:57;7.25;;;3.78;;
22549;SDS011;11441;57.164;-2.120;2023-06-14T00:54:24;8.57;;;4.05;;
22549;SDS011;11441;57.164;-2.120;2023-06-14T00:56:51;6.90;;;3.70;;
22549;SDS011;11441;57.164;-2.120;2023-06-14T00:59:18;7.00;;;3.65;;
22549;SDS011;11441;57.164;-2.120;2023-06-14T01:01:45;6.80;;;4.30;;
22549;SDS011;11441;57.164;-2.120;2023-06-14T01:04:12;9.43;;;3.92;;
22549;SDS011;11441;57.164;-2.120;2023-06-14T01:09:58;6.30;;;4.15;;
22549;SDS011;11441;57.164;-2.120;2023-06-14T01:15:22;8.93;;;4.45;;
22549;SDS011;11441;57.164;-2.120;2023-06-14T01:17:50;8.07;;;4.50;;
22549;SDS011;11441;57.164;-2.120;2023-06-14T01:20:20;7.63;;;4.22;;
22549;SDS011;11441;57.164;-2.120;2023-06-14T01:23:05;9.73;;;5.05;;
22549;SDS011;11441;57.164;-2.120;2023-06-14T01:25:32;7.03;;;4.10;;
22549;SDS011;11441;57.164;-2.120;2023-06-14T01:28:00;9.48;;;4.60;;
22549;SDS011;11441;57.164;-2.120;2023-06-14T01:30:30;9.15;;;4.90;;
22549;SDS011;11441;57.164;-2.120;2023-06-14T01:32:59;7.85;;;4.82;;
22549;SDS011;11441;57.164;-2.120;2023-06-14T01:35:50;9.00;;;4.78;;
22549;SDS011;11441;57.164;-2.120;2023-06-14T01:38:19;5.32;;;4.25;;
22549;SDS011;11441;57.164;-2.120;2023-06-14T01:41:09;11.00;;;5.28;;
22549;SDS011;11441;57.164;-2.120;2023-06-14T01:43:37;5.78;;;4.45;;
22549;SDS011;11441;57.164;-2.120;2023-06-14T01:46:05;8.40;;;4.22;;
22549;SDS011;11441;57.164;-2.120;2023-06-14T01:48:33;7.80;;;5.43;;
22549;SDS011;11441;57.164;-2.120;2023-06-14T01:51:02;7.93;;;4.28;;
22549;SDS011;11441;57.164;-2.120;2023-06-14T01:53:29;8.52;;;4.53;;
22549;SDS011;11441;57.164;-2.120;2023-06-14T01:55:56;7.97;;;4.97;;
22549;SDS011;11441;57.164;-2.120;2023-06-14T01:58:23;6.18;;;4.40;;
22549;SDS011;11441;57.164;-2.120;2023-06-14T02:00:50;7.00;;;4.55;;
22549;SDS011;11441;57.164;-2.120;2023-06-14T02:03:17;11.63;;;4.70;;
22549;SDS011;11441;57.164;-2.120;2023-06-14T02:05:46;10.02;;;5.20;;
22549;SDS011;11441;57.164;-2.120;2023-06-14T02:08:13;7.15;;;5.05;;
22549;SDS011;11441;57.164;-2.120;2023-06-14T02:10:40;8.43;;;5.40;;
22549;SDS011;11441;57.164;-2.120;2023-06-14T02:13:06;14.48;;;5.85;;
22549;SDS011;11441;57.164;-2.120;2023-06-14T02:15:33;12.02;;;5.97;;
22549;SDS011;11441;57.164;-2.120;2023-06-14T02:18:02;5.95;;;5.30;;
22549;SDS011;11441;57.164;-2.120;2023-06-14T02:20:32;7.60;;;5.15;;
22549;SDS011;11441;57.164;-2.120;2023-06-14T02:22:59;12.45;;;5.00;;
22549;SDS011;11441;57.164;-2.120;2023-06-14T02:25:26;12.65;;;4.82;;
22549;SDS011;11441;57.164;-2.120;2023-06-14T02:27:54;8.15;;;4.72;;
22549;SDS011;11441;57.164;-2.120;2023-06-14T02:30:40;7.57;;;5.03;;
22549;SDS011;11441;57.164;-2.120;2023-06-14T02:33:07;10.30;;;5.38;;
22549;SDS011;11441;57.164;-2.120;2023-06-14T02:35:34;11.32;;;5.15;;
22549;SDS011;11441;57.164;-2.120;2023-06-14T02:38:01;15.52;;;5.30;;
22549;SDS011;11441;57.164;-2.120;2023-06-14T02:40:47;12.65;;;5.20;;
22549;SDS011;11441;57.164;-2.120;2023-06-14T02:43:14;8.98;;;4.28;;
22549;SDS011;11441;57.164;-2.120;2023-06-14T02:45:43;8.15;;;6.10;;
22549;SDS011;11441;57.164;-2.120;2023-06-14T02:48:10;11.55;;;5.18;;
22549;SDS011;11441;57.164;-2.120;2023-06-14T02:51:14;5.80;;;4.60;;
22549;SDS011;11441;57.164;-2.120;2023-06-14T02:53:41;8.18;;;5.10;;
22549;SDS011;11441;57.164;-2.120;2023-06-14T02:56:09;11.80;;;5.10;;
22549;SDS011;11441;57.164;-2.120;2023-06-14T02:58:38;11.57;;;5.38;;
22549;SDS011;11441;57.164;-2.120;2023-06-14T03:01:06;10.05;;;5.45;;
22549;SDS011;11441;57.164;-2.120;2023-06-14T03:03:34;10.10;;;5.55;;
22549;SDS011;11441;57.164;-2.120;2023-06-14T03:06:01;9.55;;;5.03;;
22549;SDS011;11441;57.164;-2.120;2023-06-14T03:08:52;8.02;;;5.05;;
22549;SDS011;11441;57.164;-2.120;2023-06-14T03:14:26;7.28;;;5.15;;
22549;SDS011;11441;57.164;-2.120;2023-06-14T03:16:56;6.80;;;4.88;;
22549;SDS011;11441;57.164;-2.120;2023-06-14T03:19:23;10.02;;;5.22;;
22549;SDS011;11441;57.164;-2.120;2023-06-14T03:21:52;7.57;;;5.28;;
22549;SDS011;11441;57.164;-2.120;2023-06-14T03:24:25;11.18;;;5.18;;
22549;SDS011;11441;57.164;-2.120;2023-06-14T03:26:57;9.50;;;5.18;;
22549;SDS011;11441;57.164;-2.120;2023-06-14T03:29:26;8.15;;;5.57;;
22549;SDS011;11441;57.164;-2.120;2023-06-14T03:31:58;14.77;;;5.78;;
22549;SDS011;11441;57.164;-2.120;2023-06-14T03:34:33;7.43;;;4.47;;
22549;SDS011;11441;57.164;-2.120;2023-06-14T03:37:02;8.45;;;5.75;;
22549;SDS011;11441;57.164;-2.120;2023-06-14T03:39:29;7.75;;;5.43;;
22549;SDS011;11441;57.164;-2.120;2023-06-14T03:41:56;12.10;;;5.80;;
22549;SDS011;11441;57.164;-2.120;2023-06-14T03:44:23;9.30;;;5.05;;
22549;SDS011;11441;57.164;-2.120;2023-06-14T03:46:50;9.82;;;4.75;;
22549;SDS011;11441;57.164;-2.120;2023-06-14T03:49:18;10.95;;;5.57;;
22549;SDS011;11441;57.164;-2.120;2023-06-14T03:52:04;8.68;;;5.45;;
22549;SDS011;11441;57.164;-2.120;2023-06-14T03:54:34;8.93;;;5.22;;
22549;SDS011;11441;57.164;-2.120;2023-06-14T03:57:03;10.35;;;5.35;;
22549;SDS011;11441;57.164;-2.120;2023-06-14T03:59:31;7.93;;;5.75;;
22549;SDS011;11441;57.164;-2.120;2023-06-14T04:01:58;8.23;;;5.25;;
22549;SDS011;11441;57.164;-2.120;2023-06-14T04:04:25;9.40;;;5.47;;
22549;SDS011;11441;57.164;-2.120;2023-06-14T04:06:56;11.27;;;5.15;;
22549;SDS011;11441;57.164;-2.120;2023-06-14T04:09:26;8.93;;;5.60;;
22549;SDS011;11441;57.164;-2.120;2023-06-14T04:11:53;8.82;;;5.95;;
22549;SDS011;11441;57.164;-2.120;2023-06-14T04:14:20;11.52;;;5.32;;
22549;SDS011;11441;57.164;-2.120;2023-06-14T04:16:47;11.80;;;4.80;;
22549;SDS011;11441;57.164;-2.120;2023-06-14T04:19:17;8.13;;;5.75;;
22549;SDS011;11441;57.164;-2.120;2023-06-14T04:21:44;14.35;;;6.13;;
22549;SDS011;11441;57.164;-2.120;2023-06-14T04:24:13;11.52;;;5.47;;
22549;SDS011;11441;57.164;-2.120;2023-06-14T04:26:43;9.20;;;4.88;;
22549;SDS011;11441;57.164;-2.120;2023-06-14T04:29:13;9.55;;;5.38;;
22549;SDS011;11441;57.164;-2.120;2023-06-14T04:31:46;9.65;;;5.93;;
22549;SDS011;11441;57.164;-2.120;2023-06-14T04:34:13;10.82;;;5.15;;
22549;SDS011;11441;57.164;-2.120;2023-06-14T04:36:49;14.55;;;5.47;;
22549;SDS011;11441;57.164;-2.120;2023-06-14T04:39:16;8.60;;;4.75;;
22549;SDS011;11441;57.164;-2.120;2023-06-14T04:41:46;8.25;;;5.55;;
22549;SDS011;11441;57.164;-2.120;2023-06-14T04:44:31;7.63;;;5.47;;
22549;SDS011;11441;57.164;-2.120;2023-06-14T04:47:01;13.55;;;5.45;;
22549;SDS011;11441;57.164;-2.120;2023-06-14T04:49:28;10.32;;;5.45;;
22549;SDS011;11441;57.164;-2.120;2023-06-14T04:51:59;5.18;;;4.63;;
22549;SDS011;11441;57.164;-2.120;2023-06-14T04:54:37;9.20;;;5.93;;
22549;SDS011;11441;57.164;-2.120;2023-06-14T04:57:07;8.20;;;4.63;;
22549;SDS011;11441;57.164;-2.120;2023-06-14T04:59:35;7.88;;;4.95;;
22549;SDS011;11441;57.164;-2.120;2023-06-14T05:02:03;7.50;;;5.05;;
22549;SDS011;11441;57.164;-2.120;2023-06-14T05:04:30;7.93;;;4.93;;
22549;SDS011;11441;57.164;-2.120;2023-06-14T05:06:58;6.60;;;4.72;;
22549;SDS011;11441;57.164;-2.120;2023-06-14T05:09:24;11.13;;;4.72;;
22549;SDS011;11441;57.164;-2.120;2023-06-14T05:11:52;9.60;;;4.72;;
22549;SDS011;11441;57.164;-2.120;2023-06-14T05:14:19;9.80;;;4.60;;
22549;SDS011;11441;57.164;-2.120;2023-06-14T05:17:06;9.00;;;4.03;;
22549;SDS011;11441;57.164;-2.120;2023-06-14T05:19:33;6.53;;;4.07;;
22549;SDS011;11441;57.164;-2.120;2023-06-14T05:22:00;8.98;;;4.60;;
22549;SDS011;11441;57.164;-2.120;2023-06-14T05:24:27;4.75;;;4.30;;
22549;SDS011;11441;57.164;-2.120;2023-06-14T05:26:57;8.05;;;4.97;;
22549;SDS011;11441;57.164;-2.120;2023-06-14T05:32:09;11.55;;;5.30;;
22549;SDS011;11441;57.164;-2.120;2023-06-14T05:34:36;9.07;;;4.82;;
22549;SDS011;11441;57.164;-2.120;2023-06-14T05:37:03;7.45;;;4.68;;
22549;SDS011;11441;57.164;-2.120;2023-06-14T05:39:30;13.10;;;4.88;;
22549;SDS011;11441;57.164;-2.120;2023-06-14T05:41:57;7.72;;;4.78;;
22549;SDS011;11441;57.164;-2.120;2023-06-14T05:44:24;9.90;;;4.53;;
22549;SDS011;11441;57.164;-2.120;2023-06-14T05:46:51;4.93;;;4.00;;
22549;SDS011;11441;57.164;-2.120;2023-06-14T05:49:18;7.82;;;4.15;;
22549;SDS011;11441;57.164;-2.120;2023-06-14T05:51:45;8.82;;;4.90;;
22549;SDS011;11441;57.164;-2.120;2023-06-14T05:54:12;9.43;;;5.03;;
22549;SDS011;11441;57.164;-2.120;2023-06-14T05:56:39;9.98;;;4.80;;
22549;SDS011;11441;57.164;-2.120;2023-06-14T05:59:24;6.18;;;4.03;;
22549;SDS011;11441;57.164;-2.120;2023-06-14T06:01:51;10.25;;;4.97;;
22549;SDS011;11441;57.164;-2.120;2023-06-14T06:04:18;9.05;;;4.68;;
22549;SDS011;11441;57.164;-2.120;2023-06-14T06:06:45;10.23;;;4.50;;
22549;SDS011;11441;57.164;-2.120;2023-06-14T06:09:13;6.78;;;4.45;;
22549;SDS011;11441;57.164;-2.120;2023-06-14T06:11:40;9.45;;;4.70;;
22549;SDS011;11441;57.164;-2.120;2023-06-14T06:14:18;7.88;;;4.68;;
22549;SDS011;11441;57.164;-2.120;2023-06-14T06:16:45;8.05;;;4.45;;
22549;SDS011;11441;57.164;-2.120;2023-06-14T06:19:13;12.40;;;5.38;;
22549;SDS011;11441;57.164;-2.120;2023-06-14T06:21:40;7.85;;;4.57;;
22549;SDS011;11441;57.164;-2.120;2023-06-14T06:24:07;10.15;;;4.72;;
22549;SDS011;11441;57.164;-2.120;2023-06-14T06:26:34;8.13;;;4.50;;
22549;SDS011;11441;57.164;-2.120;2023-06-14T06:29:01;6.65;;;4.10;;
22549;SDS011;11441;57.164;-2.120;2023-06-14T06:31:28;9.18;;;4.53;;
22549;SDS011;11441;57.164;-2.120;2023-06-14T06:34:13;6.47;;;4.45;;
22549;SDS011;11441;57.164;-2.120;2023-06-14T06:36:40;11.23;;;4.85;;
22549;SDS011;11441;57.164;-2.120;2023-06-14T06:39:08;8.75;;;4.78;;
22549;SDS011;11441;57.164;-2.120;2023-06-14T06:41:39;6.97;;;4.97;;
22549;SDS011;11441;57.164;-2.120;2023-06-14T06:44:06;9.82;;;4.70;;
22549;SDS011;11441;57.164;-2.120;2023-06-14T06:46:33;6.28;;;4.13;;
22549;SDS011;11441;57.164;-2.120;2023-06-14T06:49:01;12.40;;;4.63;;
22549;SDS011;11441;57.164;-2.120;2023-06-14T06:51:28;9.10;;;4.40;;
22549;SDS011;11441;57.164;-2.120;2023-06-14T06:53:55;9.77;;;4.97;;
22549;SDS011;11441;57.164;-2.120;2023-06-14T06:56:22;11.85;;;4.80;;
22549;SDS011;11441;57.164;-2.120;2023-06-14T06:58:50;7.43;;;4.75;;
22549;SDS011;11441;57.164;-2.120;2023-06-14T07:01:17;8.02;;;4.65;;
22549;SDS011;11441;57.164;-2.120;2023-06-14T07:03:46;6.15;;;4.53;;
22549;SDS011;11441;57.164;-2.120;2023-06-14T07:06:32;11.85;;;4.53;;
22549;SDS011;11441;57.164;-2.120;2023-06-14T07:08:59;7.53;;;4.32;;
22549;SDS011;11441;57.164;-2.120;2023-06-14T07:11:44;7.28;;;4.20;;
22549;SDS011;11441;57.164;-2.120;2023-06-14T07:14:11;7.57;;;4.32;;
22549;SDS011;11441;57.164;-2.120;2023-06-14T07:16:39;8.40;;;3.97;;
22549;SDS011;11441;57.164;-2.120;2023-06-14T07:19:06;6.63;;;4.30;;
22549;SDS011;11441;57.164;-2.120;2023-06-14T07:21:33;7.03;;;4.15;;
22549;SDS011;11441;57.164;-2.120;2023-06-14T07:24:00;9.57;;;3.78;;
22549;SDS011;11441;57.164;-2.120;2023-06-14T07:26:27;8.57;;;4.53;;
22549;SDS011;11441;57.164;-2.120;2023-06-14T07:28:54;10.95;;;3.90;;
22549;SDS011;11441;57.164;-2.120;2023-06-14T07:31:21;6.05;;;4.15;;
22549;SDS011;11441;57.164;-2.120;2023-06-14T07:33:48;9.35;;;4.43;;
22549;SDS011;11441;57.164;-2.120;2023-06-14T07:36:15;9.63;;;3.80;;
22549;SDS011;11441;57.164;-2.120;2023-06-14T07:38:41;7.22;;;4.57;;
22549;SDS011;11441;57.164;-2.120;2023-06-14T07:41:08;6.13;;;4.65;;
22549;SDS011;11441;57.164;-2.120;2023-06-14T07:43:35;7.35;;;3.80;;
22549;SDS011;11441;57.164;-2.120;2023-06-14T07:46:02;8.73;;;3.88;;
22549;SDS011;11441;57.164;-2.120;2023-06-14T07:48:33;6.45;;;4.10;;
22549;SDS011;11441;57.164;-2.120;2023-06-14T07:51:01;9.75;;;4.20;;
22549;SDS011;11441;57.164;-2.120;2023-06-14T07:53:28;6.53;;;4.20;;
22549;SDS011;11441;57.164;-2.120;2023-06-14T07:55:57;5.60;;;3.75;;
22549;SDS011;11441;57.164;-2.120;2023-06-14T07:58:24;5.55;;;3.00;;
22549;SDS011;11441;57.164;-2.120;2023-06-14T08:00:51;9.20;;;4.35;;
22549;SDS011;11441;57.164;-2.120;2023-06-14T08:03:18;6.57;;;4.22;;
22549;SDS011;11441;57.164;-2.120;2023-06-14T08:05:46;11.38;;;4.07;;
22549;SDS011;11441;57.164;-2.120;2023-06-14T08:08:13;8.70;;;4.10;;
22549;SDS011;11441;57.164;-2.120;2023-06-14T08:10:40;8.20;;;3.85;;
22549;SDS011;11441;57.164;-2.120;2023-06-14T08:13:25;4.63;;;3.60;;
22549;SDS011;11441;57.164;-2.120;2023-06-14T08:15:52;9.52;;;4.35;;
22549;SDS011;11441;57.164;-2.120;2023-06-14T08:18:19;5.25;;;4.10;;
22549;SDS011;11441;57.164;-2.120;2023-06-14T08:20:46;6.50;;;4.00;;
22549;SDS011;11441;57.164;-2.120;2023-06-14T08:23:13;7.05;;;3.05;;
22549;SDS011;11441;57.164;-2.120;2023-06-14T08:25:40;8.02;;;4.28;;
22549;SDS011;11441;57.164;-2.120;2023-06-14T08:28:07;7.75;;;4.32;;
22549;SDS011;11441;57.164;-2.120;2023-06-14T08:30:34;10.05;;;4.43;;
22549;SDS011;11441;57.164;-2.120;2023-06-14T08:33:37;8.93;;;4.38;;
22549;SDS011;11441;57.164;-2.120;2023-06-14T08:36:05;4.15;;;3.10;;
22549;SDS011;11441;57.164;-2.120;2023-06-14T08:38:32;7.40;;;4.47;;
22549;SDS011;11441;57.164;-2.120;2023-06-14T08:40:59;6.38;;;3.63;;
22549;SDS011;11441;57.164;-2.120;2023-06-14T08:43:27;5.88;;;3.60;;
22549;SDS011;11441;57.164;-2.120;2023-06-14T08:45:58;9.73;;;4.10;;
22549;SDS011;11441;57.164;-2.120;2023-06-14T08:48:26;6.32;;;4.45;;
22549;SDS011;11441;57.164;-2.120;2023-06-14T08:50:56;5.30;;;4.07;;
22549;SDS011;11441;57.164;-2.120;2023-06-14T08:53:29;9.77;;;3.78;;
22549;SDS011;11441;57.164;-2.120;2023-06-14T08:56:01;6.55;;;3.60;;
22549;SDS011;11441;57.164;-2.120;2023-06-14T08:58:31;9.18;;;4.13;;
22549;SDS011;11441;57.164;-2.120;2023-06-14T09:01:03;8.93;;;4.10;;
22549;SDS011;11441;57.164;-2.120;2023-06-14T09:03:31;5.82;;;3.97;;
22549;SDS011;11441;57.164;-2.120;2023-06-14T09:05:59;6.40;;;4.38;;
22549;SDS011;11441;57.164;-2.120;2023-06-14T09:08:28;6.57;;;4.18;;
22549;SDS011;11441;57.164;-2.120;2023-06-14T09:10:57;5.93;;;3.65;;
22549;SDS011;11441;57.164;-2.120;2023-06-14T09:13:26;8.73;;;3.55;;
22549;SDS011;11441;57.164;-2.120;2023-06-14T09:15:57;15.32;;;5.28;;
22549;SDS011;11441;57.164;-2.120;2023-06-14T09:21:25;6.85;;;3.70;;
22549;SDS011;11441;57.164;-2.120;2023-06-14T09:23:52;7.55;;;4.30;;
22549;SDS011;11441;57.164;-2.120;2023-06-14T09:26:20;7.93;;;3.70;;
22549;SDS011;11441;57.164;-2.120;2023-06-14T09:28:50;6.65;;;4.22;;
22549;SDS011;11441;57.164;-2.120;2023-06-14T09:31:17;4.63;;;3.70;;
22549;SDS011;11441;57.164;-2.120;2023-06-14T09:33:47;5.55;;;4.05;;
22549;SDS011;11441;57.164;-2.120;2023-06-14T09:36:24;6.28;;;4.57;;
22549;SDS011;11441;57.164;-2.120;2023-06-14T09:38:52;4.55;;;3.90;;
22549;SDS011;11441;57.164;-2.120;2023-06-14T09:41:33;9.20;;;3.47;;
22549;SDS011;11441;57.164;-2.120;2023-06-14T09:44:01;7.82;;;4.38;;
22549;SDS011;11441;57.164;-2.120;2023-06-14T09:46:35;5.45;;;3.80;;
22549;SDS011;11441;57.164;-2.120;2023-06-14T09:49:04;5.57;;;3.83;;
22549;SDS011;11441;57.164;-2.120;2023-06-14T09:51:32;5.18;;;3.85;;
22549;SDS011;11441;57.164;-2.120;2023-06-14T09:54:02;5.40;;;4.10;;
22549;SDS011;11441;57.164;-2.120;2023-06-14T09:56:44;5.25;;;3.90;;
22549;SDS011;11441;57.164;-2.120;2023-06-14T09:59:13;10.57;;;4.40;;
22549;SDS011;11441;57.164;-2.120;2023-06-14T10:01:46;8.70;;;3.67;;
22549;SDS011;11441;57.164;-2.120;2023-06-14T10:04:15;5.13;;;3.65;;
22549;SDS011;11441;57.164;-2.120;2023-06-14T10:06:45;6.53;;;3.95;;
22549;SDS011;11441;57.164;-2.120;2023-06-14T10:09:12;5.13;;;4.00;;
22549;SDS011;11441;57.164;-2.120;2023-06-14T10:11:40;10.35;;;3.95;;
22549;SDS011;11441;57.164;-2.120;2023-06-14T10:14:11;9.18;;;4.50;;
22549;SDS011;11441;57.164;-2.120;2023-06-14T10:16:56;6.15;;;3.83;;
22549;SDS011;11441;57.164;-2.120;2023-06-14T10:19:37;6.70;;;4.10;;
22549;SDS011;11441;57.164;-2.120;2023-06-14T10:23:03;9.48;;;3.58;;
22549;SDS011;11441;57.164;-2.120;2023-06-14T10:25:40;6.40;;;3.83;;
22549;SDS011;11441;57.164;-2.120;2023-06-14T10:30:38;6.25;;;4.00;;
22549;SDS011;11441;57.164;-2.120;2023-06-14T10:33:06;10.07;;;3.95;;
22549;SDS011;11441;57.164;-2.120;2023-06-14T10:35:34;8.13;;;3.97;;
22549;SDS011;11441;57.164;-2.120;2023-06-14T10:38:19;5.32;;;3.70;;
22549;SDS011;11441;57.164;-2.120;2023-06-14T10:40:57;7.70;;;3.83;;
22549;SDS011;11441;57.164;-2.120;2023-06-14T10:43:24;5.57;;;3.65;;
22549;SDS011;11441;57.164;-2.120;2023-06-14T10:46:13;8.85;;;4.07;;
22549;SDS011;11441;57.164;-2.120;2023-06-14T10:48:45;5.28;;;3.78;;
22549;SDS011;11441;57.164;-2.120;2023-06-14T10:51:49;4.82;;;3.55;;
22549;SDS011;11441;57.164;-2.120;2023-06-14T10:54:21;9.68;;;4.43;;
22549;SDS011;11441;57.164;-2.120;2023-06-14T10:56:51;8.38;;;3.90;;
22549;SDS011;11441;57.164;-2.120;2023-06-14T10:59:19;7.63;;;4.00;;
22549;SDS011;11441;57.164;-2.120;2023-06-14T11:04:48;7.13;;;4.25;;
22549;SDS011;11441;57.164;-2.120;2023-06-14T11:10:43;12.82;;;4.30;;
22549;SDS011;11441;57.164;-2.120;2023-06-14T11:13:15;7.35;;;3.70;;
22549;SDS011;11441;57.164;-2.120;2023-06-14T11:15:44;5.15;;;3.42;;
22549;SDS011;11441;57.164;-2.120;2023-06-14T11:18:12;7.35;;;3.67;;
22549;SDS011;11441;57.164;-2.120;2023-06-14T11:20:40;7.25;;;3.80;;
22549;SDS011;11441;57.164;-2.120;2023-06-14T11:23:25;5.65;;;3.90;;
22549;SDS011;11441;57.164;-2.120;2023-06-14T11:25:52;6.13;;;3.65;;
22549;SDS011;11441;57.164;-2.120;2023-06-14T11:28:21;6.70;;;3.75;;
22549;SDS011;11441;57.164;-2.120;2023-06-14T11:30:59;6.45;;;3.40;;
22549;SDS011;11441;57.164;-2.120;2023-06-14T11:33:27;7.05;;;3.47;;
22549;SDS011;11441;57.164;-2.120;2023-06-14T11:35:54;9.05;;;3.95;;
22549;SDS011;11441;57.164;-2.120;2023-06-14T11:38:21;7.03;;;3.58;;
22549;SDS011;11441;57.164;-2.120;2023-06-14T11:43:34;4.47;;;3.15;;
22549;SDS011;11441;57.164;-2.120;2023-06-14T11:46:01;5.72;;;3.50;;
22549;SDS011;11441;57.164;-2.120;2023-06-14T11:48:41;5.15;;;3.80;;
22549;SDS011;11441;57.164;-2.120;2023-06-14T11:51:09;5.40;;;3.42;;
22549;SDS011;11441;57.164;-2.120;2023-06-14T11:53:36;11.93;;;3.58;;
22549;SDS011;11441;57.164;-2.120;2023-06-14T11:56:03;3.97;;;3.28;;
22549;SDS011;11441;57.164;-2.120;2023-06-14T11:58:31;5.97;;;3.50;;
22549;SDS011;11441;57.164;-2.120;2023-06-14T12:00:58;4.15;;;3.75;;
22549;SDS011;11441;57.164;-2.120;2023-06-14T12:03:25;5.50;;;3.38;;
22549;SDS011;11441;57.164;-2.120;2023-06-14T12:06:05;6.35;;;3.78;;
22549;SDS011;11441;57.164;-2.120;2023-06-14T12:11:22;4.40;;;3.60;;
22549;SDS011;11441;57.164;-2.120;2023-06-14T12:13:49;3.60;;;3.30;;
22549;SDS011;11441;57.164;-2.120;2023-06-14T12:16:16;4.43;;;3.13;;
22549;SDS011;11441;57.164;-2.120;2023-06-14T12:19:00;5.68;;;3.47;;
22549;SDS011;11441;57.164;-2.120;2023-06-14T12:24:28;5.70;;;3.13;;
22549;SDS011;11441;57.164;-2.120;2023-06-14T12:26:59;4.30;;;3.33;;
22549;SDS011;11441;57.164;-2.120;2023-06-14T12:29:26;5.18;;;3.15;;
22549;SDS011;11441;57.164;-2.120;2023-06-14T12:31:53;4.88;;;3.67;;
22549;SDS011;11441;57.164;-2.120;2023-06-14T12:34:23;6.25;;;3.38;;
22549;SDS011;11441;57.164;-2.120;2023-06-14T12:36:50;6.57;;;3.13;;
22549;SDS011;11441;57.164;-2.120;2023-06-14T12:39:18;7.57;;;3.45;;
22549;SDS011;11441;57.164;-2.120;2023-06-14T12:41:45;7.72;;;3.53;;
22549;SDS011;11441;57.164;-2.120;2023-06-14T12:44:12;3.97;;;2.95;;
22549;SDS011;11441;57.164;-2.120;2023-06-14T12:46:40;5.07;;;3.92;;
22549;SDS011;11441;57.164;-2.120;2023-06-14T12:49:09;4.20;;;2.95;;
22549;SDS011;11441;57.164;-2.120;2023-06-14T12:51:37;7.45;;;3.10;;
22549;SDS011;11441;57.164;-2.120;2023-06-14T12:54:05;6.18;;;3.33;;
22549;SDS011;11441;57.164;-2.120;2023-06-14T12:56:32;3.97;;;3.08;;
22549;SDS011;11441;57.164;-2.120;2023-06-14T12:58:59;6.75;;;2.80;;
22549;SDS011;11441;57.164;-2.120;2023-06-14T13:01:26;6.95;;;2.92;;
22549;SDS011;11441;57.164;-2.120;2023-06-14T13:03:53;7.55;;;2.80;;
22549;SDS011;11441;57.164;-2.120;2023-06-14T13:06:21;8.05;;;2.80;;
22549;SDS011;11441;57.164;-2.120;2023-06-14T13:08:49;4.68;;;2.92;;
22549;SDS011;11441;57.164;-2.120;2023-06-14T13:11:16;3.45;;;2.60;;
22549;SDS011;11441;57.164;-2.120;2023-06-14T13:13:43;4.03;;;2.50;;
22549;SDS011;11441;57.164;-2.120;2023-06-14T13:16:10;9.82;;;2.83;;
22549;SDS011;11441;57.164;-2.120;2023-06-14T13:18:58;4.55;;;2.30;;
22549;SDS011;11441;57.164;-2.120;2023-06-14T13:21:25;6.60;;;2.80;;
22549;SDS011;11441;57.164;-2.120;2023-06-14T13:23:52;5.68;;;2.58;;
22549;SDS011;11441;57.164;-2.120;2023-06-14T13:26:20;3.38;;;2.55;;
22549;SDS011;11441;57.164;-2.120;2023-06-14T13:28:47;3.22;;;2.90;;
22549;SDS011;11441;57.164;-2.120;2023-06-14T13:31:14;3.50;;;2.97;;
22549;SDS011;11441;57.164;-2.120;2023-06-14T13:33:41;4.15;;;2.75;;
22549;SDS011;11441;57.164;-2.120;2023-06-14T13:36:08;3.50;;;2.60;;
22549;SDS011;11441;57.164;-2.120;2023-06-14T13:38:35;4.75;;;2.50;;
22549;SDS011;11441;57.164;-2.120;2023-06-14T13:41:02;3.85;;;2.25;;
22549;SDS011;11441;57.164;-2.120;2023-06-14T13:43:29;5.22;;;2.70;;
22549;SDS011;11441;57.164;-2.120;2023-06-14T13:45:56;6.40;;;2.35;;
22549;SDS011;11441;57.164;-2.120;2023-06-14T13:48:23;2.10;;;1.90;;
22549;SDS011;11441;57.164;-2.120;2023-06-14T13:50:51;7.13;;;2.05;;
22549;SDS011;11441;57.164;-2.120;2023-06-14T13:53:17;3.45;;;2.15;;
22549;SDS011;11441;57.164;-2.120;2023-06-14T13:56:03;8.73;;;1.95;;
22549;SDS011;11441;57.164;-2.120;2023-06-14T13:58:30;4.50;;;1.75;;
22549;SDS011;11441;57.164;-2.120;2023-06-14T14:01:15;7.28;;;2.10;;
22549;SDS011;11441;57.164;-2.120;2023-06-14T14:03:45;5.22;;;2.00;;
22549;SDS011;11441;57.164;-2.120;2023-06-14T14:06:12;1.98;;;1.25;;
22549;SDS011;11441;57.164;-2.120;2023-06-14T14:08:39;3.63;;;2.30;;
22549;SDS011;11441;57.164;-2.120;2023-06-14T14:11:07;1.70;;;1.60;;
22549;SDS011;11441;57.164;-2.120;2023-06-14T14:13:36;4.63;;;2.10;;
22549;SDS011;11441;57.164;-2.120;2023-06-14T14:16:05;6.10;;;1.80;;
22549;SDS011;11441;57.164;-2.120;2023-06-14T14:18:32;6.05;;;1.75;;
22549;SDS011;11441;57.164;-2.120;2023-06-14T14:21:00;3.10;;;1.50;;
22549;SDS011;11441;57.164;-2.120;2023-06-14T14:23:27;3.92;;;1.45;;
22549;SDS011;11441;57.164;-2.120;2023-06-14T14:26:11;4.78;;;1.63;;
22549;SDS011;11441;57.164;-2.120;2023-06-14T14:28:38;7.88;;;1.90;;
22549;SDS011;11441;57.164;-2.120;2023-06-14T14:31:05;2.53;;;1.70;;
22549;SDS011;11441;57.164;-2.120;2023-06-14T14:33:50;4.05;;;1.80;;
22549;SDS011;11441;57.164;-2.120;2023-06-14T14:36:17;5.75;;;2.00;;
22549;SDS011;11441;57.164;-2.120;2023-06-14T14:38:44;1.92;;;1.55;;
22549;SDS011;11441;57.164;-2.120;2023-06-14T14:41:11;5.43;;;1.73;;
22549;SDS011;11441;57.164;-2.120;2023-06-14T14:43:38;3.60;;;1.58;;
22549;SDS011;11441;57.164;-2.120;2023-06-14T14:46:05;4.03;;;1.73;;
22549;SDS011;11441;57.164;-2.120;2023-06-14T14:48:32;6.80;;;1.42;;
22549;SDS011;11441;57.164;-2.120;2023-06-14T14:50:59;4.45;;;1.60;;
22549;SDS011;11441;57.164;-2.120;2023-06-14T14:53:26;4.22;;;1.45;;
22549;SDS011;11441;57.164;-2.120;2023-06-14T14:55:53;3.97;;;1.63;;
22549;SDS011;11441;57.164;-2.120;2023-06-14T14:58:20;5.95;;;2.10;;
22549;SDS011;11441;57.164;-2.120;2023-06-14T15:00:47;3.90;;;1.67;;
22549;SDS011;11441;57.164;-2.120;2023-06-14T15:03:14;7.30;;;1.33;;
22549;SDS011;11441;57.164;-2.120;2023-06-14T15:05:42;3.50;;;1.50;;
22549;SDS011;11441;57.164;-2.120;2023-06-14T15:08:09;6.28;;;1.80;;
22549;SDS011;11441;57.164;-2.120;2023-06-14T15:10:39;4.97;;;1.77;;
22549;SDS011;11441;57.164;-2.120;2023-06-14T15:13:08;6.95;;;1.52;;
22549;SDS011;11441;57.164;-2.120;2023-06-14T15:15:35;4.15;;;1.48;;
22549;SDS011;11441;57.164;-2.120;2023-06-14T15:18:03;6.10;;;1.88;;
22549;SDS011;11441;57.164;-2.120;2023-06-14T15:20:30;4.45;;;2.17;;
22549;SDS011;11441;57.164;-2.120;2023-06-14T15:22:58;3.50;;;1.60;;